sensor_id;sensor_type;location;lat;lon;timestamp;P1;durP1;ratioP1;P2;durP2;ratioP2
60225;SDS011;46090;48.436;11.410;2022-11-15T07:25:42;6.22;;;0.77;;
60225;SDS011;46090;48.436;11.410;2022-11-15T07:28:27;2.50;;;0.50;;
60225;SDS011;46090;48.436;11.410;2022-11-15T07:33:58;8.88;;;0.63;;
60225;SDS011;46090;48.436;11.410;2022-11-15T07:39:28;5.18;;;0.80;;
60225;SDS011;46090;48.436;11.410;2022-11-15T07:42:14;4.60;;;0.52;;
60225;SDS011;46090;48.436;11.410;2022-11-15T07:45:19;4.00;;;0.75;;
60225;SDS011;46090;48.436;11.410;2022-11-15T07:48:05;2.30;;;0.40;;
60225;SDS011;46090;48.436;11.410;2022-11-15T07:50:51;3.70;;;0.50;;
60225;SDS011;46090;48.436;11.410;2022-11-15T07:53:36;3.90;;;0.80;;
60225;SDS011;46090;48.436;11.410;2022-11-15T07:56:21;2.15;;;0.43;;
60225;SDS011;46090;48.436;11.410;2022-11-15T07:59:06;4.90;;;0.80;;
60225;SDS011;46090;48.436;11.410;2022-11-15T08:01:52;5.55;;;0.55;;
60225;SDS011;46090;48.436;11.410;2022-11-15T08:04:37;4.20;;;0.80;;
60225;SDS011;46090;48.436;11.410;2022-11-15T08:07:22;3.72;;;0.52;;
60225;SDS011;46090;48.436;11.410;2022-11-15T08:10:08;2.60;;;0.50;;
60225;SDS011;46090;48.436;11.410;2022-11-15T08:15:42;2.53;;;0.50;;
60225;SDS011;46090;48.436;11.410;2022-11-15T08:18:28;5.15;;;0.40;;
60225;SDS011;46090;48.436;11.410;2022-11-15T08:21:14;3.20;;;0.80;;
60225;SDS011;46090;48.436;11.410;2022-11-15T08:24:04;4.18;;;0.50;;
60225;SDS011;46090;48.436;11.410;2022-11-15T08:26:49;3.00;;;0.68;;
60225;SDS011;46090;48.436;11.410;2022-11-15T08:29:35;2.67;;;0.60;;
60225;SDS011;46090;48.436;11.410;2022-11-15T08:32:20;3.47;;;0.65;;
60225;SDS011;46090;48.436;11.410;2022-11-15T08:35:05;2.95;;;0.60;;
60225;SDS011;46090;48.436;11.410;2022-11-15T08:37:55;2.28;;;0.35;;
60225;SDS011;46090;48.436;11.410;2022-11-15T08:40:40;3.40;;;0.47;;
60225;SDS011;46090;48.436;11.410;2022-11-15T08:43:26;2.42;;;0.60;;
60225;SDS011;46090;48.436;11.410;2022-11-15T08:46:12;3.55;;;0.70;;
60225;SDS011;46090;48.436;11.410;2022-11-15T08:48:57;2.53;;;0.65;;
60225;SDS011;46090;48.436;11.410;2022-11-15T08:51:43;1.77;;;0.32;;
60225;SDS011;46090;48.436;11.410;2022-11-15T08:54:28;2.38;;;0.43;;
60225;SDS011;46090;48.436;11.410;2022-11-15T08:57:13;2.25;;;0.45;;
60225;SDS011;46090;48.436;11.410;2022-11-15T09:00:00;3.63;;;0.82;;
60225;SDS011;46090;48.436;11.410;2022-11-15T09:02:45;6.13;;;0.77;;
60225;SDS011;46090;48.436;11.410;2022-11-15T09:05:31;1.80;;;0.30;;
60225;SDS011;46090;48.436;11.410;2022-11-15T09:08:16;2.45;;;0.40;;
60225;SDS011;46090;48.436;11.410;2022-11-15T09:11:21;2.23;;;0.60;;
60225;SDS011;46090;48.436;11.410;2022-11-15T09:14:10;1.67;;;0.65;;
60225;SDS011;46090;48.436;11.410;2022-11-15T09:16:56;1.95;;;0.47;;
60225;SDS011;46090;48.436;11.410;2022-11-15T09:19:43;2.28;;;0.50;;
60225;SDS011;46090;48.436;11.410;2022-11-15T09:22:28;3.47;;;0.55;;
60225;SDS011;46090;48.436;11.410;2022-11-15T09:25:13;2.05;;;0.40;;
60225;SDS011;46090;48.436;11.410;2022-11-15T09:27:59;2.78;;;0.40;;
60225;SDS011;46090;48.436;11.410;2022-11-15T09:30:45;3.95;;;0.57;;
60225;SDS011;46090;48.436;11.410;2022-11-15T09:33:30;4.15;;;0.63;;
60225;SDS011;46090;48.436;11.410;2022-11-15T09:36:16;1.75;;;0.32;;
60225;SDS011;46090;48.436;11.410;2022-11-15T09:44:39;2.22;;;0.45;;
60225;SDS011;46090;48.436;11.410;2022-11-15T09:48:08;1.92;;;0.50;;
60225;SDS011;46090;48.436;11.410;2022-11-15T09:50:59;1.77;;;0.52;;
60225;SDS011;46090;48.436;11.410;2022-11-15T09:53:29;1.20;;;0.30;;
60225;SDS011;46090;48.436;11.410;2022-11-15T09:56:21;1.42;;;0.30;;
60225;SDS011;46090;48.436;11.410;2022-11-15T10:04:42;2.28;;;0.47;;
60225;SDS011;46090;48.436;11.410;2022-11-15T10:09:50;2.15;;;0.40;;
60225;SDS011;46090;48.436;11.410;2022-11-15T10:12:19;1.48;;;0.30;;
60225;SDS011;46090;48.436;11.410;2022-11-15T10:14:46;2.20;;;0.40;;
60225;SDS011;46090;48.436;11.410;2022-11-15T10:17:30;1.83;;;0.30;;
60225;SDS011;46090;48.436;11.410;2022-11-15T10:22:59;2.50;;;0.32;;
60225;SDS011;46090;48.436;11.410;2022-11-15T10:25:30;2.22;;;0.38;;
60225;SDS011;46090;48.436;11.410;2022-11-15T10:28:01;1.98;;;0.38;;
60225;SDS011;46090;48.436;11.410;2022-11-15T10:33:09;1.60;;;0.40;;
60225;SDS011;46090;48.436;11.410;2022-11-15T10:35:37;1.92;;;0.38;;
60225;SDS011;46090;48.436;11.410;2022-11-15T10:38:08;1.98;;;0.52;;
60225;SDS011;46090;48.436;11.410;2022-11-15T10:40:36;1.85;;;0.50;;
60225;SDS011;46090;48.436;11.410;2022-11-15T10:45:42;3.47;;;0.40;;
60225;SDS011;46090;48.436;11.410;2022-11-15T10:50:40;2.78;;;0.47;;
60225;SDS011;46090;48.436;11.410;2022-11-15T10:57:48;1.45;;;0.40;;
60225;SDS011;46090;48.436;11.410;2022-11-15T11:02:47;1.63;;;0.32;;
60225;SDS011;46090;48.436;11.410;2022-11-15T11:05:31;1.42;;;0.30;;
60225;SDS011;46090;48.436;11.410;2022-11-15T11:10:57;2.08;;;0.52;;
60225;SDS011;46090;48.436;11.410;2022-11-15T11:13:30;1.65;;;0.30;;
60225;SDS011;46090;48.436;11.410;2022-11-15T11:21:11;2.05;;;0.40;;
60225;SDS011;46090;48.436;11.410;2022-11-15T11:24:03;0.85;;;0.30;;
60225;SDS011;46090;48.436;11.410;2022-11-15T11:26:42;1.63;;;0.38;;
60225;SDS011;46090;48.436;11.410;2022-11-15T11:31:48;1.88;;;0.40;;
60225;SDS011;46090;48.436;11.410;2022-11-15T11:36:59;1.40;;;0.30;;
60225;SDS011;46090;48.436;11.410;2022-11-15T11:42:23;1.38;;;0.30;;
60225;SDS011;46090;48.436;11.410;2022-11-15T11:50:41;2.50;;;0.30;;
60225;SDS011;46090;48.436;11.410;2022-11-15T11:53:12;1.30;;;0.38;;
60225;SDS011;46090;48.436;11.410;2022-11-15T11:55:45;1.48;;;0.32;;
60225;SDS011;46090;48.436;11.410;2022-11-15T11:58:18;1.52;;;0.40;;
60225;SDS011;46090;48.436;11.410;2022-11-15T12:00:59;1.38;;;0.35;;
60225;SDS011;46090;48.436;11.410;2022-11-15T12:06:39;1.23;;;0.30;;
60225;SDS011;46090;48.436;11.410;2022-11-15T12:09:14;0.93;;;0.30;;
60225;SDS011;46090;48.436;11.410;2022-11-15T12:12:04;2.10;;;0.40;;
60225;SDS011;46090;48.436;11.410;2022-11-15T12:14:36;1.35;;;0.30;;
60225;SDS011;46090;48.436;11.410;2022-11-15T12:17:10;1.42;;;0.38;;
60225;SDS011;46090;48.436;11.410;2022-11-15T12:19:37;2.33;;;0.40;;
60225;SDS011;46090;48.436;11.410;2022-11-15T12:24:40;1.48;;;0.45;;
60225;SDS011;46090;48.436;11.410;2022-11-15T12:27:19;1.05;;;0.40;;
60225;SDS011;46090;48.436;11.410;2022-11-15T12:29:57;1.70;;;0.40;;
60225;SDS011;46090;48.436;11.410;2022-11-15T12:32:31;2.05;;;0.45;;
60225;SDS011;46090;48.436;11.410;2022-11-15T12:35:01;1.70;;;0.40;;
60225;SDS011;46090;48.436;11.410;2022-11-15T12:45:51;1.42;;;0.30;;
60225;SDS011;46090;48.436;11.410;2022-11-15T12:50:53;1.33;;;0.40;;
60225;SDS011;46090;48.436;11.410;2022-11-15T13:12:00;1.65;;;0.40;;
60225;SDS011;46090;48.436;11.410;2022-11-15T13:20:11;1.15;;;0.30;;
60225;SDS011;46090;48.436;11.410;2022-11-15T13:27:58;1.23;;;0.40;;
60225;SDS011;46090;48.436;11.410;2022-11-15T13:30:33;1.30;;;0.38;;
60225;SDS011;46090;48.436;11.410;2022-11-15T13:33:05;1.48;;;0.30;;
60225;SDS011;46090;48.436;11.410;2022-11-15T13:35:36;1.40;;;0.40;;
60225;SDS011;46090;48.436;11.410;2022-11-15T13:38:05;1.23;;;0.30;;
60225;SDS011;46090;48.436;11.410;2022-11-15T13:40:36;1.90;;;0.50;;
60225;SDS011;46090;48.436;11.410;2022-11-15T13:48:33;3.75;;;0.40;;
60225;SDS011;46090;48.436;11.410;2022-11-15T13:51:01;2.03;;;0.32;;
60225;SDS011;46090;48.436;11.410;2022-11-15T13:53:30;1.13;;;0.30;;
60225;SDS011;46090;48.436;11.410;2022-11-15T13:55:58;1.80;;;0.32;;
60225;SDS011;46090;48.436;11.410;2022-11-15T13:58:25;1.30;;;0.22;;
60225;SDS011;46090;48.436;11.410;2022-11-15T14:00:59;1.08;;;0.30;;
60225;SDS011;46090;48.436;11.410;2022-11-15T14:03:29;1.45;;;0.28;;
60225;SDS011;46090;48.436;11.410;2022-11-15T14:08:41;1.10;;;0.28;;
60225;SDS011;46090;48.436;11.410;2022-11-15T14:11:23;1.40;;;0.32;;
60225;SDS011;46090;48.436;11.410;2022-11-15T14:14:08;1.05;;;0.20;;
60225;SDS011;46090;48.436;11.410;2022-11-15T14:16:42;2.83;;;0.50;;
60225;SDS011;46090;48.436;11.410;2022-11-15T14:19:11;2.75;;;0.52;;
60225;SDS011;46090;48.436;11.410;2022-11-15T14:24:35;1.92;;;0.30;;
60225;SDS011;46090;48.436;11.410;2022-11-15T14:29:59;1.42;;;0.40;;
60225;SDS011;46090;48.436;11.410;2022-11-15T14:32:27;1.13;;;0.40;;
60225;SDS011;46090;48.436;11.410;2022-11-15T14:34:56;1.35;;;0.30;;
60225;SDS011;46090;48.436;11.410;2022-11-15T14:37:28;1.80;;;0.38;;
60225;SDS011;46090;48.436;11.410;2022-11-15T14:40:01;2.10;;;0.30;;
60225;SDS011;46090;48.436;11.410;2022-11-15T14:42:30;2.08;;;0.40;;
60225;SDS011;46090;48.436;11.410;2022-11-15T14:44:56;1.05;;;0.28;;
60225;SDS011;46090;48.436;11.410;2022-11-15T14:47:23;1.40;;;0.40;;
60225;SDS011;46090;48.436;11.410;2022-11-15T14:49:51;1.08;;;0.40;;
60225;SDS011;46090;48.436;11.410;2022-11-15T14:52:25;1.33;;;0.30;;
60225;SDS011;46090;48.436;11.410;2022-11-15T14:54:59;0.98;;;0.28;;
60225;SDS011;46090;48.436;11.410;2022-11-15T14:57:28;0.93;;;0.20;;
60225;SDS011;46090;48.436;11.410;2022-11-15T14:59:55;1.38;;;0.30;;
60225;SDS011;46090;48.436;11.410;2022-11-15T15:02:25;0.85;;;0.20;;
60225;SDS011;46090;48.436;11.410;2022-11-15T15:04:53;0.95;;;0.30;;
60225;SDS011;46090;48.436;11.410;2022-11-15T15:07:20;1.58;;;0.30;;
60225;SDS011;46090;48.436;11.410;2022-11-15T15:09:48;1.20;;;0.40;;
60225;SDS011;46090;48.436;11.410;2022-11-15T15:14:49;1.52;;;0.20;;
60225;SDS011;46090;48.436;11.410;2022-11-15T15:17:17;1.10;;;0.30;;
60225;SDS011;46090;48.436;11.410;2022-11-15T15:19:44;1.40;;;0.30;;
60225;SDS011;46090;48.436;11.410;2022-11-15T15:22:12;1.15;;;0.20;;
60225;SDS011;46090;48.436;11.410;2022-11-15T15:24:41;1.15;;;0.30;;
60225;SDS011;46090;48.436;11.410;2022-11-15T15:27:09;1.20;;;0.30;;
60225;SDS011;46090;48.436;11.410;2022-11-15T15:29:35;1.27;;;0.30;;
60225;SDS011;46090;48.436;11.410;2022-11-15T15:32:02;1.40;;;0.30;;
60225;SDS011;46090;48.436;11.410;2022-11-15T15:34:29;1.27;;;0.20;;
60225;SDS011;46090;48.436;11.410;2022-11-15T15:39:52;1.27;;;0.28;;
60225;SDS011;46090;48.436;11.410;2022-11-15T15:42:20;0.80;;;0.30;;
60225;SDS011;46090;48.436;11.410;2022-11-15T15:44:47;1.15;;;0.28;;
60225;SDS011;46090;48.436;11.410;2022-11-15T15:47:15;0.90;;;0.30;;
60225;SDS011;46090;48.436;11.410;2022-11-15T15:49:44;1.10;;;0.32;;
60225;SDS011;46090;48.436;11.410;2022-11-15T15:52:10;1.40;;;0.30;;
60225;SDS011;46090;48.436;11.410;2022-11-15T15:54:39;1.33;;;0.30;;
60225;SDS011;46090;48.436;11.410;2022-11-15T15:57:06;2.53;;;0.30;;
60225;SDS011;46090;48.436;11.410;2022-11-15T15:59:34;1.20;;;0.30;;
60225;SDS011;46090;48.436;11.410;2022-11-15T16:02:01;3.92;;;0.50;;
60225;SDS011;46090;48.436;11.410;2022-11-15T16:04:28;2.03;;;0.50;;
60225;SDS011;46090;48.436;11.410;2022-11-15T16:06:58;1.90;;;0.40;;
60225;SDS011;46090;48.436;11.410;2022-11-15T16:09:26;1.58;;;0.50;;
60225;SDS011;46090;48.436;11.410;2022-11-15T16:12:12;4.25;;;0.40;;
60225;SDS011;46090;48.436;11.410;2022-11-15T16:14:38;1.58;;;0.30;;
60225;SDS011;46090;48.436;11.410;2022-11-15T16:17:05;2.22;;;0.47;;
60225;SDS011;46090;48.436;11.410;2022-11-15T16:19:32;3.33;;;0.50;;
60225;SDS011;46090;48.436;11.410;2022-11-15T16:21:59;2.75;;;0.47;;
60225;SDS011;46090;48.436;11.410;2022-11-15T16:24:25;1.40;;;0.38;;
60225;SDS011;46090;48.436;11.410;2022-11-15T16:26:52;1.48;;;0.60;;
60225;SDS011;46090;48.436;11.410;2022-11-15T16:29:18;1.55;;;0.38;;
60225;SDS011;46090;48.436;11.410;2022-11-15T16:31:45;2.03;;;0.60;;
60225;SDS011;46090;48.436;11.410;2022-11-15T16:34:12;1.90;;;0.50;;
60225;SDS011;46090;48.436;11.410;2022-11-15T16:36:39;2.70;;;0.60;;
60225;SDS011;46090;48.436;11.410;2022-11-15T16:39:05;2.05;;;0.50;;
60225;SDS011;46090;48.436;11.410;2022-11-15T16:41:32;2.10;;;0.40;;
60225;SDS011;46090;48.436;11.410;2022-11-15T16:44:00;2.47;;;0.60;;
60225;SDS011;46090;48.436;11.410;2022-11-15T16:46:26;3.00;;;0.50;;
60225;SDS011;46090;48.436;11.410;2022-11-15T16:48:55;1.75;;;0.52;;
60225;SDS011;46090;48.436;11.410;2022-11-15T16:51:22;1.95;;;0.63;;
60225;SDS011;46090;48.436;11.410;2022-11-15T17:00:51;3.67;;;0.93;;
60225;SDS011;46090;48.436;11.410;2022-11-15T17:03:20;3.05;;;0.80;;
60225;SDS011;46090;48.436;11.410;2022-11-15T17:05:47;2.75;;;0.63;;
60225;SDS011;46090;48.436;11.410;2022-11-15T17:08:15;2.78;;;0.60;;
60225;SDS011;46090;48.436;11.410;2022-11-15T17:10:41;3.45;;;0.68;;
60225;SDS011;46090;48.436;11.410;2022-11-15T17:13:10;2.72;;;0.70;;
60225;SDS011;46090;48.436;11.410;2022-11-15T17:15:39;2.47;;;0.80;;
60225;SDS011;46090;48.436;11.410;2022-11-15T17:18:06;2.47;;;0.40;;
60225;SDS011;46090;48.436;11.410;2022-11-15T17:20:32;4.03;;;0.80;;
60225;SDS011;46090;48.436;11.410;2022-11-15T17:22:59;3.03;;;0.88;;
60225;SDS011;46090;48.436;11.410;2022-11-15T17:25:26;2.90;;;0.70;;
60225;SDS011;46090;48.436;11.410;2022-11-15T17:27:53;2.90;;;0.65;;
60225;SDS011;46090;48.436;11.410;2022-11-15T17:30:21;4.00;;;0.73;;
60225;SDS011;46090;48.436;11.410;2022-11-15T17:32:48;2.38;;;0.55;;
60225;SDS011;46090;48.436;11.410;2022-11-15T17:35:15;3.88;;;0.50;;
60225;SDS011;46090;48.436;11.410;2022-11-15T17:37:42;3.78;;;1.02;;
60225;SDS011;46090;48.436;11.410;2022-11-15T17:40:09;4.60;;;0.60;;
60225;SDS011;46090;48.436;11.410;2022-11-15T17:42:36;3.08;;;0.55;;
60225;SDS011;46090;48.436;11.410;2022-11-15T17:45:02;2.70;;;0.70;;
60225;SDS011;46090;48.436;11.410;2022-11-15T17:47:35;4.22;;;0.55;;
60225;SDS011;46090;48.436;11.410;2022-11-15T17:50:02;1.95;;;0.50;;
60225;SDS011;46090;48.436;11.410;2022-11-15T17:52:31;2.65;;;0.55;;
60225;SDS011;46090;48.436;11.410;2022-11-15T17:55:00;2.80;;;0.55;;
60225;SDS011;46090;48.436;11.410;2022-11-15T17:57:27;2.45;;;0.50;;
60225;SDS011;46090;48.436;11.410;2022-11-15T17:59:54;2.78;;;0.63;;
60225;SDS011;46090;48.436;11.410;2022-11-15T18:02:20;2.42;;;0.60;;
60225;SDS011;46090;48.436;11.410;2022-11-15T18:04:47;2.85;;;0.77;;
60225;SDS011;46090;48.436;11.410;2022-11-15T18:07:14;1.60;;;0.60;;
60225;SDS011;46090;48.436;11.410;2022-11-15T18:09:40;2.38;;;0.60;;
60225;SDS011;46090;48.436;11.410;2022-11-15T18:12:10;2.20;;;0.70;;
60225;SDS011;46090;48.436;11.410;2022-11-15T18:14:37;2.97;;;0.50;;
60225;SDS011;46090;48.436;11.410;2022-11-15T18:17:04;2.90;;;0.45;;
60225;SDS011;46090;48.436;11.410;2022-11-15T18:19:31;2.20;;;0.70;;
60225;SDS011;46090;48.436;11.410;2022-11-15T18:21:57;1.98;;;0.50;;
60225;SDS011;46090;48.436;11.410;2022-11-15T18:24:30;2.22;;;0.50;;
60225;SDS011;46090;48.436;11.410;2022-11-15T18:26:59;3.30;;;0.60;;
60225;SDS011;46090;48.436;11.410;2022-11-15T18:29:26;3.38;;;0.50;;
60225;SDS011;46090;48.436;11.410;2022-11-15T18:31:53;2.70;;;0.70;;
60225;SDS011;46090;48.436;11.410;2022-11-15T18:34:22;2.50;;;0.65;;
60225;SDS011;46090;48.436;11.410;2022-11-15T18:36:49;2.13;;;0.55;;
60225;SDS011;46090;48.436;11.410;2022-11-15T18:39:17;1.40;;;0.43;;
60225;SDS011;46090;48.436;11.410;2022-11-15T18:41:44;2.58;;;0.50;;
60225;SDS011;46090;48.436;11.410;2022-11-15T18:44:14;2.22;;;0.60;;
60225;SDS011;46090;48.436;11.410;2022-11-15T18:46:41;2.55;;;0.60;;
60225;SDS011;46090;48.436;11.410;2022-11-15T18:49:10;2.85;;;0.60;;
60225;SDS011;46090;48.436;11.410;2022-11-15T18:51:38;4.43;;;0.70;;
60225;SDS011;46090;48.436;11.410;2022-11-15T18:54:08;1.70;;;0.50;;
60225;SDS011;46090;48.436;11.410;2022-11-15T18:56:37;1.98;;;0.50;;
60225;SDS011;46090;48.436;11.410;2022-11-15T18:59:04;3.35;;;0.70;;
60225;SDS011;46090;48.436;11.410;2022-11-15T19:01:32;3.45;;;0.77;;
60225;SDS011;46090;48.436;11.410;2022-11-15T19:04:05;3.63;;;0.68;;
60225;SDS011;46090;48.436;11.410;2022-11-15T19:06:39;2.70;;;0.60;;
60225;SDS011;46090;48.436;11.410;2022-11-15T19:09:07;2.83;;;0.60;;
60225;SDS011;46090;48.436;11.410;2022-11-15T19:11:35;3.03;;;0.50;;
60225;SDS011;46090;48.436;11.410;2022-11-15T19:14:04;2.75;;;0.70;;
60225;SDS011;46090;48.436;11.410;2022-11-15T19:16:38;4.10;;;0.70;;
60225;SDS011;46090;48.436;11.410;2022-11-15T19:19:09;2.90;;;0.60;;
60225;SDS011;46090;48.436;11.410;2022-11-15T19:21:38;2.28;;;0.60;;
60225;SDS011;46090;48.436;11.410;2022-11-15T19:24:04;2.35;;;0.63;;
60225;SDS011;46090;48.436;11.410;2022-11-15T19:26:31;3.33;;;0.63;;
60225;SDS011;46090;48.436;11.410;2022-11-15T19:28:59;2.58;;;0.63;;
60225;SDS011;46090;48.436;11.410;2022-11-15T19:31:27;4.00;;;0.73;;
60225;SDS011;46090;48.436;11.410;2022-11-15T19:33:56;2.95;;;0.60;;
60225;SDS011;46090;48.436;11.410;2022-11-15T19:36:25;4.32;;;0.60;;
60225;SDS011;46090;48.436;11.410;2022-11-15T19:39:03;2.92;;;0.70;;
60225;SDS011;46090;48.436;11.410;2022-11-15T19:41:33;4.97;;;0.70;;
60225;SDS011;46090;48.436;11.410;2022-11-15T19:44:01;3.45;;;0.50;;
60225;SDS011;46090;48.436;11.410;2022-11-15T19:46:28;3.33;;;0.73;;
60225;SDS011;46090;48.436;11.410;2022-11-15T19:48:54;2.35;;;0.50;;
60225;SDS011;46090;48.436;11.410;2022-11-15T19:51:22;2.47;;;0.60;;
60225;SDS011;46090;48.436;11.410;2022-11-15T19:53:51;5.13;;;0.70;;
60225;SDS011;46090;48.436;11.410;2022-11-15T19:56:18;2.03;;;0.68;;
60225;SDS011;46090;48.436;11.410;2022-11-15T19:58:45;2.72;;;0.60;;
60225;SDS011;46090;48.436;11.410;2022-11-15T20:01:24;3.20;;;0.82;;
60225;SDS011;46090;48.436;11.410;2022-11-15T20:06:27;3.17;;;0.82;;
60225;SDS011;46090;48.436;11.410;2022-11-15T20:08:56;4.93;;;0.70;;
60225;SDS011;46090;48.436;11.410;2022-11-15T20:11:23;4.93;;;1.00;;
60225;SDS011;46090;48.436;11.410;2022-11-15T20:13:54;3.03;;;0.85;;
60225;SDS011;46090;48.436;11.410;2022-11-15T20:16:22;2.20;;;0.68;;
60225;SDS011;46090;48.436;11.410;2022-11-15T20:18:49;3.92;;;0.70;;
60225;SDS011;46090;48.436;11.410;2022-11-15T20:21:17;3.70;;;0.68;;
60225;SDS011;46090;48.436;11.410;2022-11-15T20:23:44;2.65;;;0.80;;
60225;SDS011;46090;48.436;11.410;2022-11-15T20:26:12;2.47;;;0.77;;
60225;SDS011;46090;48.436;11.410;2022-11-15T20:28:41;3.85;;;0.75;;
60225;SDS011;46090;48.436;11.410;2022-11-15T20:31:09;4.38;;;0.90;;
60225;SDS011;46090;48.436;11.410;2022-11-15T20:33:36;2.72;;;0.80;;
60225;SDS011;46090;48.436;11.410;2022-11-15T20:36:06;4.00;;;0.98;;
60225;SDS011;46090;48.436;11.410;2022-11-15T20:38:35;4.22;;;1.00;;
60225;SDS011;46090;48.436;11.410;2022-11-15T20:41:02;12.15;;;1.30;;
60225;SDS011;46090;48.436;11.410;2022-11-15T20:43:29;7.90;;;1.17;;
60225;SDS011;46090;48.436;11.410;2022-11-15T20:45:56;8.00;;;1.35;;
60225;SDS011;46090;48.436;11.410;2022-11-15T20:48:23;6.22;;;1.20;;
60225;SDS011;46090;48.436;11.410;2022-11-15T20:50:50;11.05;;;1.40;;
60225;SDS011;46090;48.436;11.410;2022-11-15T20:53:17;8.32;;;0.95;;
60225;SDS011;46090;48.436;11.410;2022-11-15T20:55:46;5.30;;;1.25;;
60225;SDS011;46090;48.436;11.410;2022-11-15T20:58:14;10.27;;;1.30;;
60225;SDS011;46090;48.436;11.410;2022-11-15T21:00:42;5.78;;;1.10;;
60225;SDS011;46090;48.436;11.410;2022-11-15T21:03:11;4.40;;;1.38;;
60225;SDS011;46090;48.436;11.410;2022-11-15T21:05:39;6.93;;;1.35;;
60225;SDS011;46090;48.436;11.410;2022-11-15T21:08:08;5.63;;;1.27;;
60225;SDS011;46090;48.436;11.410;2022-11-15T21:10:36;6.78;;;1.67;;
60225;SDS011;46090;48.436;11.410;2022-11-15T21:18:56;4.85;;;1.20;;
60225;SDS011;46090;48.436;11.410;2022-11-15T21:21:22;6.15;;;1.50;;
60225;SDS011;46090;48.436;11.410;2022-11-15T21:23:49;4.95;;;1.40;;
60225;SDS011;46090;48.436;11.410;2022-11-15T21:26:16;6.47;;;1.77;;
60225;SDS011;46090;48.436;11.410;2022-11-15T21:28:42;6.78;;;1.60;;
60225;SDS011;46090;48.436;11.410;2022-11-15T21:31:09;5.60;;;1.52;;
60225;SDS011;46090;48.436;11.410;2022-11-15T21:33:37;4.63;;;1.30;;
60225;SDS011;46090;48.436;11.410;2022-11-15T21:36:05;4.88;;;1.30;;
60225;SDS011;46090;48.436;11.410;2022-11-15T21:38:32;5.28;;;1.25;;
60225;SDS011;46090;48.436;11.410;2022-11-15T21:41:01;6.72;;;1.58;;
60225;SDS011;46090;48.436;11.410;2022-11-15T21:43:28;5.18;;;1.13;;
60225;SDS011;46090;48.436;11.410;2022-11-15T21:45:55;4.97;;;1.58;;
60225;SDS011;46090;48.436;11.410;2022-11-15T21:48:22;3.63;;;1.10;;
60225;SDS011;46090;48.436;11.410;2022-11-15T21:50:59;6.47;;;1.60;;
60225;SDS011;46090;48.436;11.410;2022-11-15T21:53:27;4.85;;;1.40;;
60225;SDS011;46090;48.436;11.410;2022-11-15T21:55:54;5.28;;;1.30;;
60225;SDS011;46090;48.436;11.410;2022-11-15T21:58:21;4.50;;;1.48;;
60225;SDS011;46090;48.436;11.410;2022-11-15T22:00:48;5.78;;;1.30;;
60225;SDS011;46090;48.436;11.410;2022-11-15T22:03:34;5.03;;;1.00;;
60225;SDS011;46090;48.436;11.410;2022-11-15T22:06:02;3.85;;;1.35;;
60225;SDS011;46090;48.436;11.410;2022-11-15T22:08:30;3.70;;;1.10;;
60225;SDS011;46090;48.436;11.410;2022-11-15T22:10:57;6.40;;;1.60;;
60225;SDS011;46090;48.436;11.410;2022-11-15T22:13:24;7.75;;;1.20;;
60225;SDS011;46090;48.436;11.410;2022-11-15T22:15:52;5.18;;;1.48;;
60225;SDS011;46090;48.436;11.410;2022-11-15T22:18:20;4.57;;;1.17;;
60225;SDS011;46090;48.436;11.410;2022-11-15T22:20:52;6.50;;;1.40;;
60225;SDS011;46090;48.436;11.410;2022-11-15T22:23:20;3.95;;;1.20;;
60225;SDS011;46090;48.436;11.410;2022-11-15T22:25:47;5.60;;;1.27;;
60225;SDS011;46090;48.436;11.410;2022-11-15T22:28:14;4.22;;;1.23;;
60225;SDS011;46090;48.436;11.410;2022-11-15T22:30:43;5.50;;;1.50;;
60225;SDS011;46090;48.436;11.410;2022-11-15T22:33:13;5.35;;;1.38;;
60225;SDS011;46090;48.436;11.410;2022-11-15T22:35:41;4.80;;;1.33;;
60225;SDS011;46090;48.436;11.410;2022-11-15T22:38:08;4.63;;;1.30;;
60225;SDS011;46090;48.436;11.410;2022-11-15T22:40:35;6.03;;;1.55;;
60225;SDS011;46090;48.436;11.410;2022-11-15T22:43:02;3.97;;;1.10;;
60225;SDS011;46090;48.436;11.410;2022-11-15T22:45:30;4.65;;;1.17;;
60225;SDS011;46090;48.436;11.410;2022-11-15T22:47:57;7.75;;;1.60;;
60225;SDS011;46090;48.436;11.410;2022-11-15T22:50:24;5.75;;;1.20;;
60225;SDS011;46090;48.436;11.410;2022-11-15T22:52:51;5.88;;;1.00;;
60225;SDS011;46090;48.436;11.410;2022-11-15T22:55:19;6.40;;;1.65;;
60225;SDS011;46090;48.436;11.410;2022-11-15T22:57:46;4.75;;;1.15;;
60225;SDS011;46090;48.436;11.410;2022-11-15T23:00:13;4.55;;;1.40;;
60225;SDS011;46090;48.436;11.410;2022-11-15T23:02:41;5.78;;;1.40;;
60225;SDS011;46090;48.436;11.410;2022-11-15T23:05:09;4.45;;;1.42;;
60225;SDS011;46090;48.436;11.410;2022-11-15T23:07:37;4.40;;;1.33;;
60225;SDS011;46090;48.436;11.410;2022-11-15T23:10:04;5.32;;;1.52;;
60225;SDS011;46090;48.436;11.410;2022-11-15T23:12:50;4.65;;;1.45;;
60225;SDS011;46090;48.436;11.410;2022-11-15T23:15:35;4.68;;;1.38;;
60225;SDS011;46090;48.436;11.410;2022-11-15T23:20:47;3.30;;;1.35;;
60225;SDS011;46090;48.436;11.410;2022-11-15T23:23:14;3.80;;;1.30;;
60225;SDS011;46090;48.436;11.410;2022-11-15T23:25:40;3.90;;;1.35;;
60225;SDS011;46090;48.436;11.410;2022-11-15T23:28:07;5.18;;;1.00;;
60225;SDS011;46090;48.436;11.410;2022-11-15T23:30:34;3.55;;;1.10;;
60225;SDS011;46090;48.436;11.410;2022-11-15T23:33:20;4.10;;;1.23;;
60225;SDS011;46090;48.436;11.410;2022-11-15T23:36:06;3.08;;;1.33;;
60225;SDS011;46090;48.436;11.410;2022-11-15T23:38:33;3.08;;;1.15;;
60225;SDS011;46090;48.436;11.410;2022-11-15T23:41:03;4.10;;;1.30;;
60225;SDS011;46090;48.436;11.410;2022-11-15T23:43:31;5.63;;;1.55;;
60225;SDS011;46090;48.436;11.410;2022-11-15T23:45:59;3.22;;;1.10;;
60225;SDS011;46090;48.436;11.410;2022-11-15T23:48:26;4.43;;;1.40;;
60225;SDS011;46090;48.436;11.410;2022-11-15T23:50:53;11.52;;;1.20;;
60225;SDS011;46090;48.436;11.410;2022-11-15T23:53:20;3.95;;;1.08;;
60225;SDS011;46090;48.436;11.410;2022-11-15T23:55:56;4.07;;;1.10;;
60225;SDS011;46090;48.436;11.410;2022-11-15T23:58:26;3.45;;;1.20;;
